Time;durP1;ratioP1;P1;durP2;ratioP2;P2;SDS_P1;SDS_P2;PMS_P1;PMS_P2;Temp;Humidity;BMP_temperature;BMP_pressure;BME280_temperature;BME280_humidity;BME280_pressure;Samples;Min_cycle;Max_cycle;Signal;HPM_P1;HPM_P2
2023/01/18 00:00:36;;;;;;;2.17;1.90;;;19.40;55.40;;;;;;4975522;28;20673;-67
2023/01/18 00:03:03;;;;;;;2.10;1.88;;;19.40;55.40;;;;;;4975822;28;20197;-68
2023/01/18 00:05:29;;;;;;;2.55;2.10;;;19.40;55.40;;;;;;4975686;28;20197;-68
2023/01/18 00:07:55;;;;;;;2.03;1.90;;;19.40;55.40;;;;;;4975597;28;20572;-68
2023/01/18 00:10:22;;;;;;;2.80;2.28;;;19.40;55.40;;;;;;4972389;28;20248;-68
2023/01/18 00:12:49;;;;;;;2.17;2.08;;;19.40;55.30;;;;;;4964832;28;20196;-68
2023/01/18 00:15:15;;;;;;;2.10;1.90;;;19.40;55.30;;;;;;4956609;28;20205;-68
2023/01/18 00:17:50;;;;;;;2.15;1.98;;;19.40;55.30;;;;;;4963370;28;20188;-68
2023/01/18 00:20:22;;;;;;;2.20;2.00;;;19.40;55.30;;;;;;4975705;28;20227;-68
2023/01/18 00:22:49;;;;;;;2.08;1.98;;;19.40;55.30;;;;;;4975509;28;20188;-68
2023/01/18 00:25:17;;;;;;;1.90;1.80;;;19.40;55.30;;;;;;4992854;28;20250;-68
2023/01/18 00:27:49;;;;;;;1.60;1.50;;;19.40;55.30;;;;;;4972251;28;20186;-68
2023/01/18 00:30:17;;;;;;;2.00;1.80;;;19.40;55.30;;;;;;4975182;28;20270;-68
2023/01/18 00:32:44;;;;;;;1.92;1.83;;;19.40;55.20;;;;;;4975466;28;20193;-68
2023/01/18 00:35:10;;;;;;;1.73;1.63;;;19.40;55.20;;;;;;4975393;28;20185;-67
2023/01/18 00:37:36;;;;;;;2.08;1.83;;;19.40;55.20;;;;;;4959339;28;20241;-68
2023/01/18 00:40:05;;;;;;;1.80;1.70;;;19.40;55.20;;;;;;4975161;28;20197;-68
2023/01/18 00:45:16;;;;;;;1.60;1.50;;;19.30;55.20;;;;;;4977953;28;20198;-68
2023/01/18 00:47:41;;;;;;;1.70;1.52;;;19.30;55.20;;;;;;4963141;28;20180;-68
2023/01/18 00:50:08;;;;;;;1.40;1.30;;;19.30;55.10;;;;;;4987674;28;20220;-68
2023/01/18 00:52:34;;;;;;;1.80;1.70;;;19.30;55.10;;;;;;4979626;28;20208;-68
2023/01/18 00:55:04;;;;;;;1.85;1.75;;;19.30;55.10;;;;;;4996477;28;20678;-68
2023/01/18 00:57:30;;;;;;;1.85;1.70;;;19.30;55.20;;;;;;4978979;28;20191;-68
2023/01/18 00:59:56;;;;;;;1.65;1.55;;;19.30;55.10;;;;;;4978845;28;20288;-69
2023/01/18 01:02:22;;;;;;;2.08;1.88;;;19.30;55.10;;;;;;4995201;28;20284;-67
2023/01/18 01:07:31;;;;;;;1.88;1.77;;;19.30;55.00;;;;;;4991905;28;20201;-68
2023/01/18 01:09:57;;;;;;;2.00;1.67;;;19.40;55.20;;;;;;4978836;28;20212;-67
2023/01/18 01:26:10;;;;;;;1.85;1.75;;;19.30;55.00;;;;;;4995893;28;20295;-68
2023/01/18 01:28:51;;;;;;;1.80;1.70;;;19.30;55.10;;;;;;4995705;28;20184;-67
2023/01/18 01:31:18;;;;;;;2.05;1.95;;;19.30;55.00;;;;;;4978276;28;20247;-68
2023/01/18 01:33:45;;;;;;;1.80;1.70;;;19.30;55.00;;;;;;4978312;28;20185;-68
2023/01/18 01:36:15;;;;;;;1.80;1.60;;;19.30;55.00;;;;;;4978148;28;20271;-67
2023/01/18 01:38:41;;;;;;;1.73;1.63;;;19.30;55.00;;;;;;4994315;28;20177;-68
2023/01/18 01:41:19;;;;;;;1.83;1.60;;;19.30;55.10;;;;;;4994188;28;20213;-68
2023/01/18 01:43:53;;;;;;;1.50;1.35;;;19.30;55.10;;;;;;4994336;28;20188;-68
2023/01/18 01:46:57;;;;;;;2.30;1.92;;;19.30;55.00;;;;;;4978045;28;20215;-68
2023/01/18 01:49:28;;;;;;;2.25;2.05;;;19.30;55.00;;;;;;4994070;28;20204;-68
2023/01/18 01:52:15;;;;;;;1.88;1.70;;;19.30;54.90;;;;;;4961647;28;20716;-68
2023/01/18 01:55:00;;;;;;;1.88;1.77;;;19.30;54.90;;;;;;4974751;28;20189;-68
2023/01/18 01:57:37;;;;;;;1.60;1.50;;;19.30;55.00;;;;;;4986344;28;20238;-68
2023/01/18 02:00:13;;;;;;;2.10;2.00;;;19.30;55.00;;;;;;4994099;28;20195;-68
2023/01/18 02:02:41;;;;;;;2.30;2.10;;;19.30;55.00;;;;;;4977964;28;20188;-68
2023/01/18 02:05:11;;;;;;;1.80;1.70;;;19.30;55.00;;;;;;4978042;28;20193;-68
2023/01/18 02:07:37;;;;;;;2.03;1.83;;;19.30;55.00;;;;;;4978003;28;20204;-68
2023/01/18 02:10:05;;;;;;;2.42;2.22;;;19.30;55.00;;;;;;4994678;28;20197;-68
2023/01/18 02:12:32;;;;;;;1.95;1.85;;;19.30;54.90;;;;;;4977873;28;20219;-68
2023/01/18 02:14:59;;;;;;;2.45;2.25;;;19.30;54.90;;;;;;4961725;28;20197;-68
2023/01/18 02:17:52;;;;;;;2.40;2.20;;;19.30;54.90;;;;;;4974401;28;20217;-68
2023/01/18 02:21:04;;;;;;;2.00;1.80;;;19.30;54.90;;;;;;4977126;28;20251;-68
2023/01/18 02:24:11;;;;;;;2.10;1.90;;;19.30;54.90;;;;;;4977323;28;20243;-68
2023/01/18 02:27:01;;;;;;;2.40;2.20;;;19.30;55.00;;;;;;4972137;28;20283;-68
2023/01/18 02:29:58;;;;;;;1.85;1.75;;;19.20;54.80;;;;;;4970239;28;20205;-68
2023/01/18 02:33:18;;;;;;;2.00;1.90;;;19.30;54.80;;;;;;4989778;28;20202;-68
2023/01/18 02:35:55;;;;;;;1.63;1.52;;;19.30;54.90;;;;;;4934331;29;20191;-68
2023/01/18 02:38:25;;;;;;;1.90;1.80;;;19.20;54.80;;;;;;4989324;28;20189;-68
2023/01/18 02:41:21;;;;;;;2.10;1.90;;;19.20;54.70;;;;;;4976790;28;20239;-68
2023/01/18 02:46:39;;;;;;;1.98;1.88;;;19.20;54.70;;;;;;4976857;28;20335;-68
2023/01/18 02:49:22;;;;;;;1.67;1.58;;;19.20;54.70;;;;;;4960385;28;20200;-68
2023/01/18 02:51:47;;;;;;;2.85;1.52;;;19.30;54.90;;;;;;4976424;28;20371;-68
2023/01/18 02:54:23;;;;;;;1.73;1.63;;;19.20;54.80;;;;;;4976893;28;20638;-68
2023/01/18 02:56:53;;;;;;;1.90;1.80;;;19.30;54.90;;;;;;4977003;28;20197;-68
2023/01/18 02:59:32;;;;;;;1.90;1.80;;;19.20;54.80;;;;;;4975759;28;20200;-68
2023/01/18 03:02:07;;;;;;;1.63;1.52;;;19.20;54.70;;;;;;4984978;28;20219;-68
2023/01/18 03:04:40;;;;;;;1.70;1.60;;;19.20;54.70;;;;;;4992847;28;20227;-68
2023/01/18 03:07:23;;;;;;;2.08;1.98;;;19.20;54.70;;;;;;4959043;28;20200;-68
2023/01/18 03:09:49;;;;;;;1.98;1.77;;;19.20;54.70;;;;;;4993877;28;20234;-68
2023/01/18 03:12:45;;;;;;;2.33;1.75;;;19.20;54.80;;;;;;4960603;28;20189;-67
2023/01/18 03:15:48;;;;;;;1.83;1.73;;;19.20;54.70;;;;;;4976488;28;20709;-68
2023/01/18 03:18:35;;;;;;;1.75;1.63;;;19.20;54.80;;;;;;4976324;28;20223;-67
2023/01/18 03:21:06;;;;;;;2.00;1.90;;;19.20;54.70;;;;;;4975870;28;20586;-67
2023/01/18 03:23:38;;;;;;;1.70;1.60;;;19.20;54.70;;;;;;4976626;28;20247;-67
2023/01/18 03:26:19;;;;;;;1.70;1.60;;;19.20;54.70;;;;;;4976008;28;20239;-67
2023/01/18 03:34:32;;;;;;;1.90;1.80;;;19.20;54.80;;;;;;4985889;28;20283;-67
2023/01/18 03:37:12;;;;;;;2.10;1.83;;;19.20;54.80;;;;;;4976064;28;20240;-68
2023/01/18 03:39:50;;;;;;;1.92;1.83;;;19.20;54.70;;;;;;4991958;28;20561;-68
2023/01/18 03:42:32;;;;;;;1.70;1.60;;;19.20;54.80;;;;;;4976226;28;20188;-68
2023/01/18 03:45:19;;;;;;;1.80;1.70;;;19.20;54.80;;;;;;4992470;28;20689;-68
2023/01/18 03:47:49;;;;;;;1.70;1.60;;;19.20;54.80;;;;;;4992206;28;20267;-67
2023/01/18 03:50:24;;;;;;;1.67;1.58;;;19.20;54.80;;;;;;4975125;28;20223;-68
2023/01/18 03:53:01;;;;;;;1.70;1.60;;;19.20;54.80;;;;;;4975987;28;20264;-68
2023/01/18 03:55:46;;;;;;;1.83;1.73;;;19.20;54.80;;;;;;4949442;28;20561;-67
2023/01/18 03:58:21;;;;;;;1.50;1.40;;;19.20;54.80;;;;;;4959596;28;20220;-68
2023/01/18 04:00:46;;;;;;;1.70;1.60;;;19.20;54.70;;;;;;4975574;28;20243;-67
2023/01/18 04:03:12;;;;;;;1.70;1.60;;;19.20;54.70;;;;;;4975827;28;20184;-68
2023/01/18 04:05:38;;;;;;;1.55;1.45;;;19.20;54.70;;;;;;4959730;28;20185;-68
2023/01/18 04:08:05;;;;;;;1.80;1.70;;;19.20;54.80;;;;;;4975963;28;20258;-67
2023/01/18 04:10:30;;;;;;;1.70;1.60;;;19.20;54.80;;;;;;4975589;28;20227;-68
2023/01/18 04:12:56;;;;;;;1.52;1.42;;;19.20;54.70;;;;;;4975993;28;20177;-68
2023/01/18 04:15:22;;;;;;;1.60;1.50;;;19.20;54.70;;;;;;4993148;28;20185;-67
2023/01/18 04:17:51;;;;;;;1.67;1.58;;;19.20;54.80;;;;;;4975633;28;20177;-67
2023/01/18 04:20:17;;;;;;;1.77;1.67;;;19.10;54.70;;;;;;4974616;28;20220;-68
2023/01/18 04:22:43;;;;;;;1.70;1.60;;;19.20;54.80;;;;;;4975484;28;20176;-67
2023/01/18 04:25:09;;;;;;;1.83;1.73;;;19.20;54.80;;;;;;4975329;28;20193;-68
2023/01/18 04:27:35;;;;;;;2.00;1.50;;;19.20;54.70;;;;;;4991867;28;20188;-68
2023/01/18 04:30:00;;;;;;;1.50;1.40;;;19.20;54.80;;;;;;4958948;28;20243;-68
2023/01/18 04:32:27;;;;;;;1.70;1.60;;;19.20;54.70;;;;;;4967306;28;20207;-67
2023/01/18 04:34:53;;;;;;;1.90;1.80;;;19.20;54.80;;;;;;4959221;28;20268;-67
2023/01/18 04:37:19;;;;;;;1.67;1.58;;;19.20;54.80;;;;;;4975210;28;20280;-68
2023/01/18 04:39:46;;;;;;;1.73;1.60;;;19.20;54.80;;;;;;4975361;28;20184;-68
2023/01/18 04:42:12;;;;;;;1.65;1.55;;;19.20;54.70;;;;;;4992479;28;20195;-68
2023/01/18 04:44:37;;;;;;;1.30;1.25;;;19.20;54.80;;;;;;4975536;28;20193;-68
2023/01/18 04:47:03;;;;;;;1.65;1.55;;;19.20;54.70;;;;;;4975360;28;20189;-68
2023/01/18 04:49:29;;;;;;;1.80;1.70;;;19.20;54.80;;;;;;4991075;28;20266;-68
2023/01/18 04:51:54;;;;;;;1.70;1.60;;;19.20;54.70;;;;;;5020469;23;20314;-67
2023/01/18 04:54:20;;;;;;;1.60;1.50;;;19.20;54.80;;;;;;4991299;28;20204;-68
2023/01/18 04:56:46;;;;;;;1.52;1.42;;;19.20;54.70;;;;;;4971909;28;20200;-67
2023/01/18 04:59:15;;;;;;;1.40;1.30;;;19.20;54.70;;;;;;4988694;28;20201;-67
2023/01/18 05:01:41;;;;;;;1.40;1.30;;;19.10;54.60;;;;;;4999364;28;20212;-67
2023/01/18 05:04:07;;;;;;;1.70;1.60;;;19.10;54.60;;;;;;4974408;28;20193;-67
2023/01/18 05:06:33;;;;;;;1.58;1.48;;;19.10;54.70;;;;;;4983914;28;20591;-67
2023/01/18 05:08:58;;;;;;;1.60;1.50;;;19.20;54.80;;;;;;4967940;28;20284;-67
2023/01/18 05:11:24;;;;;;;1.90;1.80;;;19.20;54.70;;;;;;4990364;28;20234;-67
2023/01/18 05:13:50;;;;;;;1.90;1.80;;;19.20;54.80;;;;;;4991501;28;20188;-67
2023/01/18 05:16:22;;;;;;;1.63;1.52;;;19.20;54.80;;;;;;4989409;28;20192;-67
2023/01/18 05:18:48;;;;;;;1.73;1.63;;;19.20;54.80;;;;;;4986755;28;20189;-66
2023/01/18 05:21:14;;;;;;;2.20;1.85;;;19.20;54.80;;;;;;4971599;28;20217;-69
2023/01/18 05:23:41;;;;;;;2.20;2.00;;;19.20;54.80;;;;;;4980929;28;20232;-67
2023/01/18 05:26:13;;;;;;;1.85;1.75;;;19.10;54.70;;;;;;4981033;28;20247;-67
2023/01/18 05:28:40;;;;;;;1.70;1.60;;;19.10;54.70;;;;;;4971539;28;20190;-67
2023/01/18 05:31:07;;;;;;;1.73;1.63;;;19.10;54.70;;;;;;4972153;28;20217;-67
2023/01/18 05:33:32;;;;;;;1.80;1.70;;;19.10;54.80;;;;;;4978165;28;20193;-67
2023/01/18 05:35:58;;;;;;;2.20;2.00;;;19.10;54.70;;;;;;4994652;28;20199;-67
2023/01/18 05:38:24;;;;;;;1.80;1.70;;;19.10;54.80;;;;;;4975626;28;20192;-67
2023/01/18 05:40:53;;;;;;;2.38;1.80;;;19.10;54.70;;;;;;4958753;28;20210;-68
2023/01/18 05:43:23;;;;;;;1.80;1.52;;;19.10;54.70;;;;;;4968512;28;20201;-68
2023/01/18 05:45:48;;;;;;;1.73;1.63;;;19.20;54.80;;;;;;4994295;28;20216;-68
2023/01/18 05:48:15;;;;;;;1.80;1.70;;;19.10;54.70;;;;;;4986056;28;20198;-67
2023/01/18 05:50:44;;;;;;;2.00;1.90;;;19.20;54.80;;;;;;4977532;28;20236;-67
2023/01/18 05:53:16;;;;;;;1.70;1.52;;;19.20;54.80;;;;;;4994028;28;20204;-68
2023/01/18 05:55:42;;;;;;;2.08;1.88;;;19.10;54.70;;;;;;4974073;28;20247;-67
2023/01/18 05:58:08;;;;;;;1.98;1.83;;;19.10;54.70;;;;;;4989902;28;20185;-67
2023/01/18 06:00:34;;;;;;;2.10;1.90;;;19.20;54.80;;;;;;4993831;28;20219;-68
2023/01/18 06:03:01;;;;;;;1.52;1.42;;;19.20;54.80;;;;;;4994013;28;20196;-68
2023/01/18 06:05:27;;;;;;;1.70;1.60;;;19.10;54.80;;;;;;4977896;28;20207;-68
2023/01/18 06:07:53;;;;;;;1.55;1.45;;;19.10;54.70;;;;;;4987600;28;20182;-67
2023/01/18 06:10:19;;;;;;;1.52;1.42;;;19.10;54.80;;;;;;4965900;28;20217;-68
2023/01/18 06:12:45;;;;;;;1.60;1.50;;;19.10;54.80;;;;;;4972589;28;20182;-67
2023/01/18 06:15:14;;;;;;;2.55;1.70;;;19.10;54.80;;;;;;5004210;28;20217;-68
2023/01/18 06:17:40;;;;;;;2.10;1.90;;;19.10;54.80;;;;;;4987458;28;20232;-68
2023/01/18 06:20:07;;;;;;;1.48;1.38;;;19.20;54.90;;;;;;4990687;28;20204;-68
2023/01/18 06:22:32;;;;;;;1.90;1.80;;;19.10;54.80;;;;;;4984831;28;20213;-67
2023/01/18 06:24:58;;;;;;;1.80;1.70;;;19.10;54.80;;;;;;4993085;28;20197;-68
2023/01/18 06:27:24;;;;;;;1.90;1.58;;;19.20;54.90;;;;;;4992736;28;20197;-68
2023/01/18 06:29:50;;;;;;;1.42;1.33;;;19.10;54.80;;;;;;4993921;28;20216;-68
2023/01/18 06:32:16;;;;;;;1.60;1.50;;;19.20;54.90;;;;;;5000732;28;20578;-68
2023/01/18 06:34:41;;;;;;;1.70;1.60;;;19.10;54.80;;;;;;4976528;28;20200;-68
2023/01/18 06:37:07;;;;;;;1.95;1.83;;;19.10;54.80;;;;;;4989615;28;20207;-68
2023/01/18 06:39:34;;;;;;;1.42;1.30;;;19.10;54.90;;;;;;4992428;28;20201;-68
2023/01/18 06:42:00;;;;;;;1.52;1.42;;;19.10;54.80;;;;;;4982299;28;20404;-68
2023/01/18 06:44:26;;;;;;;2.15;1.38;;;19.10;55.00;;;;;;4990153;28;20188;-68
2023/01/18 06:46:52;;;;;;;1.60;1.50;;;19.20;55.10;;;;;;4974281;28;20296;-68
2023/01/18 06:49:17;;;;;;;1.70;1.60;;;19.10;55.00;;;;;;4973602;28;20189;-68
2023/01/18 06:51:43;;;;;;;1.75;1.33;;;19.10;55.00;;;;;;4992419;28;20241;-68
2023/01/18 06:54:09;;;;;;;1.27;1.20;;;19.20;55.10;;;;;;4976334;28;20204;-68
2023/01/18 06:56:35;;;;;;;1.35;1.25;;;19.10;55.00;;;;;;4968356;28;20215;-68
2023/01/18 06:59:01;;;;;;;1.23;1.13;;;19.10;55.00;;;;;;4976119;28;20578;-68
2023/01/18 07:01:27;;;;;;;1.40;1.30;;;19.20;55.10;;;;;;4968199;28;20233;-68
2023/01/18 07:03:53;;;;;;;1.50;1.40;;;19.10;55.10;;;;;;4978577;28;20205;-68
2023/01/18 07:06:19;;;;;;;1.05;0.90;;;19.10;55.00;;;;;;4982185;28;20189;-68
2023/01/18 07:08:47;;;;;;;1.48;1.25;;;19.10;55.00;;;;;;4973926;28;20198;-68
2023/01/18 07:11:13;;;;;;;1.42;1.33;;;19.10;55.00;;;;;;4972614;28;20209;-68
2023/01/18 07:13:39;;;;;;;1.02;1.02;;;19.10;55.10;;;;;;4972833;28;20240;-68
2023/01/18 07:16:07;;;;;;;1.25;1.20;;;19.10;55.10;;;;;;4980735;28;20181;-68
2023/01/18 07:18:33;;;;;;;1.40;1.30;;;19.10;55.10;;;;;;4976666;28;20193;-68
2023/01/18 07:21:05;;;;;;;1.25;1.05;;;19.10;55.10;;;;;;4975577;28;20239;-68
2023/01/18 07:23:34;;;;;;;1.25;1.05;;;19.10;55.10;;;;;;4991952;28;20212;-68
2023/01/18 07:26:06;;;;;;;1.20;1.10;;;19.10;55.00;;;;;;4976027;28;20251;-68
2023/01/18 07:28:33;;;;;;;0.93;0.88;;;19.10;55.00;;;;;;4989163;28;20201;-67
2023/01/18 07:31:00;;;;;;;0.90;0.90;;;19.10;55.10;;;;;;4972186;28;20601;-68
2023/01/18 07:33:27;;;;;;;1.20;1.10;;;19.10;55.00;;;;;;4982227;28;20196;-68
2023/01/18 07:35:55;;;;;;;1.65;1.48;;;19.10;55.10;;;;;;4978446;28;20190;-68
2023/01/18 07:38:22;;;;;;;1.33;1.10;;;19.10;55.00;;;;;;4981541;28;20198;-68
2023/01/18 07:40:48;;;;;;;1.17;1.05;;;19.10;55.10;;;;;;4972086;28;20216;-68
2023/01/18 07:43:15;;;;;;;1.10;1.10;;;19.20;55.20;;;;;;4985243;28;20200;-68
2023/01/18 07:45:42;;;;;;;1.20;1.10;;;19.20;55.20;;;;;;4956054;28;20194;-68
2023/01/18 07:48:09;;;;;;;1.17;1.00;;;19.10;55.10;;;;;;4990792;28;20188;-68
2023/01/18 07:50:35;;;;;;;3.15;0.95;;;19.10;55.20;;;;;;4991291;28;20255;-68
2023/01/18 07:53:07;;;;;;;1.08;0.90;;;19.10;55.30;;;;;;4972247;28;20198;-68
2023/01/18 07:55:34;;;;;;;1.05;1.00;;;19.10;55.20;;;;;;5004885;28;20196;-68
2023/01/18 07:58:00;;;;;;;1.20;1.10;;;19.20;55.30;;;;;;4991442;28;20188;-68
2023/01/18 08:00:27;;;;;;;1.27;1.00;;;19.10;55.20;;;;;;4991114;28;20193;-69
2023/01/18 08:02:54;;;;;;;1.20;1.10;;;19.10;55.20;;;;;;4978091;28;20309;-68
2023/01/18 08:05:22;;;;;;;1.10;1.08;;;19.10;55.20;;;;;;4955804;28;20217;-68
2023/01/18 08:07:52;;;;;;;0.90;0.90;;;19.10;55.40;;;;;;4984561;28;20282;-68
2023/01/18 08:10:20;;;;;;;1.10;1.00;;;19.10;55.20;;;;;;4974173;28;20222;-68
2023/01/18 08:12:46;;;;;;;1.00;0.90;;;19.20;55.40;;;;;;4972098;28;20182;-68
2023/01/18 08:15:12;;;;;;;2.65;1.20;;;19.20;56.10;;;;;;4955743;28;20185;-68
2023/01/18 08:17:38;;;;;;;1.23;1.00;;;19.10;55.20;;;;;;4966772;28;20185;-68
2023/01/18 08:20:05;;;;;;;2.20;1.30;;;19.20;56.50;;;;;;4991120;28;20196;-68
2023/01/18 08:22:31;;;;;;;1.40;1.30;;;19.10;55.20;;;;;;4972598;28;20208;-68
2023/01/18 08:24:57;;;;;;;1.30;1.20;;;19.10;55.20;;;;;;4971829;28;20284;-68
2023/01/18 08:27:23;;;;;;;1.27;1.10;;;19.20;55.50;;;;;;4971598;28;20256;-69
2023/01/18 08:29:48;;;;;;;1.48;1.38;;;19.20;56.80;;;;;;4955096;28;20251;-68
2023/01/18 08:32:14;;;;;;;1.40;1.30;;;19.10;55.20;;;;;;4972953;28;20242;-68
2023/01/18 08:34:40;;;;;;;1.30;1.20;;;19.20;55.30;;;;;;4972835;28;20268;-68
2023/01/18 08:37:06;;;;;;;1.10;1.10;;;19.20;58.80;;;;;;4955378;28;20190;-68
2023/01/18 08:39:32;;;;;;;1.25;1.20;;;19.10;55.20;;;;;;4965750;28;20189;-69
2023/01/18 08:41:57;;;;;;;1.08;0.98;;;19.10;55.20;;;;;;4977514;28;20217;-68
2023/01/18 08:44:23;;;;;;;1.30;1.20;;;19.20;55.30;;;;;;4979474;28;20276;-68
2023/01/18 08:46:49;;;;;;;1.40;1.15;;;19.20;55.30;;;;;;4955707;28;20186;-68
2023/01/18 08:49:15;;;;;;;0.90;0.90;;;19.20;55.40;;;;;;4955171;28;20236;-68
2023/01/18 08:51:41;;;;;;;1.38;1.27;;;19.20;55.30;;;;;;4963802;28;20570;-68
2023/01/18 08:54:07;;;;;;;1.88;1.10;;;19.20;55.30;;;;;;4978085;28;20189;-68
2023/01/18 08:56:33;;;;;;;1.02;1.00;;;19.20;55.30;;;;;;4971127;28;20200;-68
2023/01/18 08:58:59;;;;;;;1.00;0.95;;;19.20;55.30;;;;;;4970981;28;20737;-68
2023/01/18 09:01:25;;;;;;;1.33;1.23;;;19.10;55.20;;;;;;4955500;28;20217;-69
2023/01/18 09:03:57;;;;;;;1.20;1.10;;;19.20;55.30;;;;;;4971320;28;20697;-69
2023/01/18 09:06:23;;;;;;;1.20;1.10;;;19.10;55.20;;;;;;4974064;28;20280;-69
2023/01/18 09:08:49;;;;;;;1.10;1.00;;;19.20;55.30;;;;;;4971195;28;20196;-68
2023/01/18 09:11:16;;;;;;;1.30;1.20;;;19.20;55.30;;;;;;4978060;28;20228;-68
2023/01/18 09:13:42;;;;;;;1.00;0.90;;;19.20;55.40;;;;;;4974863;28;20242;-68
2023/01/18 09:16:09;;;;;;;1.48;1.00;;;19.20;55.20;;;;;;4958917;28;20212;-68
2023/01/18 09:18:37;;;;;;;1.10;1.00;;;19.20;55.20;;;;;;4974774;28;20198;-68
2023/01/18 09:21:08;;;;;;;0.93;0.93;;;19.20;55.20;;;;;;4974759;28;20241;-68
2023/01/18 09:23:38;;;;;;;1.23;0.90;;;19.20;55.30;;;;;;4958732;28;20201;-68
2023/01/18 09:26:15;;;;;;;1.05;1.05;;;19.20;55.30;;;;;;4976158;28;20212;-68
2023/01/18 09:28:52;;;;;;;0.80;0.80;;;19.20;55.30;;;;;;4958522;28;20200;-68
2023/01/18 09:31:20;;;;;;;1.00;1.00;;;19.20;55.30;;;;;;4974590;28;20282;-69
2023/01/18 09:33:46;;;;;;;1.52;1.00;;;19.20;55.40;;;;;;4994085;28;20275;-68
2023/01/18 09:36:13;;;;;;;0.90;0.90;;;19.20;55.30;;;;;;4992297;28;20276;-68
2023/01/18 09:38:41;;;;;;;0.98;0.90;;;19.20;55.40;;;;;;4993075;28;20220;-68
2023/01/18 09:41:33;;;;;;;1.08;0.90;;;19.20;55.40;;;;;;4971504;28;20246;-68
2023/01/18 09:44:08;;;;;;;1.10;1.10;;;19.20;55.30;;;;;;4968629;28;20189;-68
2023/01/18 09:46:39;;;;;;;1.00;1.00;;;19.20;55.20;;;;;;4992230;28;20218;-68
2023/01/18 09:49:16;;;;;;;1.00;1.00;;;19.20;55.20;;;;;;4993436;28;20220;-68
2023/01/18 09:52:15;;;;;;;1.10;1.00;;;19.20;55.20;;;;;;4977477;28;20243;-68
2023/01/18 09:55:11;;;;;;;1.08;0.90;;;19.20;55.20;;;;;;4974695;28;20689;-68
2023/01/18 09:57:54;;;;;;;0.90;0.90;;;19.20;55.30;;;;;;4960293;28;20194;-69
2023/01/18 10:00:35;;;;;;;0.70;0.70;;;19.20;55.30;;;;;;4977412;28;20188;-68
2023/01/18 10:03:12;;;;;;;0.80;0.80;;;19.20;55.20;;;;;;4993826;28;20688;-68
2023/01/18 10:05:53;;;;;;;0.88;0.88;;;19.20;55.30;;;;;;4979387;28;20219;-68
2023/01/18 10:08:26;;;;;;;1.58;1.15;;;19.20;55.30;;;;;;4982080;28;20242;-68
2023/01/18 10:11:17;;;;;;;1.10;1.10;;;19.20;55.20;;;;;;4973855;28;20300;-68
2023/01/18 10:13:57;;;;;;;0.90;0.90;;;19.20;55.20;;;;;;4957837;28;20277;-68
2023/01/18 10:16:24;;;;;;;1.05;1.05;;;19.20;55.20;;;;;;4975033;28;20193;-69
2023/01/18 10:18:54;;;;;;;1.23;1.13;;;19.20;55.20;;;;;;4992946;28;20268;-68
2023/01/18 10:21:53;;;;;;;0.73;0.73;;;19.20;55.20;;;;;;4976923;28;20220;-68
2023/01/18 10:24:49;;;;;;;1.13;1.02;;;19.20;55.20;;;;;;4999842;28;20205;-68
2023/01/18 10:28:23;;;;;;;1.08;0.98;;;19.20;55.20;;;;;;4989030;28;20285;-68
2023/01/18 10:31:23;;;;;;;1.10;1.10;;;19.20;55.20;;;;;;4984970;28;20228;-68
2023/01/18 10:33:55;;;;;;;1.13;1.10;;;19.20;55.10;;;;;;4982661;28;20189;-68
2023/01/18 10:36:37;;;;;;;1.00;0.85;;;19.20;55.10;;;;;;4965317;28;20693;-68
2023/01/18 10:39:24;;;;;;;1.17;1.08;;;19.20;55.20;;;;;;4976261;28;20197;-68
2023/01/18 10:41:50;;;;;;;0.90;0.90;;;19.20;55.20;;;;;;4992996;28;20213;-68
2023/01/18 10:44:16;;;;;;;1.02;0.93;;;19.30;55.30;;;;;;4992728;28;20251;-68
2023/01/18 10:46:41;;;;;;;1.00;1.00;;;19.20;55.20;;;;;;4968139;28;20193;-68
2023/01/18 10:49:34;;;;;;;1.02;1.02;;;19.20;55.20;;;;;;4993806;28;20225;-68
2023/01/18 10:52:35;;;;;;;1.10;1.00;;;19.30;55.40;;;;;;5020338;23;20236;-68
2023/01/18 10:55:08;;;;;;;1.00;0.90;;;19.30;55.30;;;;;;4917696;29;20198;-67
2023/01/18 10:57:50;;;;;;;1.33;1.23;;;19.30;55.30;;;;;;5000542;28;20202;-67
2023/01/18 11:00:26;;;;;;;1.20;1.10;;;19.30;55.30;;;;;;4995785;28;20237;-67
2023/01/18 11:02:54;;;;;;;1.23;1.13;;;19.30;55.30;;;;;;5013176;28;20595;-67
2023/01/18 11:05:29;;;;;;;0.90;0.90;;;19.30;55.40;;;;;;4995721;28;20270;-68
2023/01/18 11:08:33;;;;;;;1.02;0.98;;;19.30;55.30;;;;;;4979331;28;20195;-67
2023/01/18 11:11:11;;;;;;;1.10;1.00;;;19.30;55.30;;;;;;4939240;28;20291;-68
2023/01/18 11:13:41;;;;;;;1.00;0.90;;;19.30;55.30;;;;;;4989507;28;20200;-67
2023/01/18 11:16:22;;;;;;;1.13;1.05;;;19.30;55.40;;;;;;4979362;28;20203;-67
2023/01/18 11:19:04;;;;;;;1.42;1.10;;;19.20;55.20;;;;;;4995305;28;20241;-69
2023/01/18 11:21:41;;;;;;;1.20;1.10;;;19.20;55.30;;;;;;4979065;28;20207;-68
2023/01/18 11:24:23;;;;;;;1.08;0.98;;;19.20;55.30;;;;;;4979362;28;20330;-67
2023/01/18 11:27:12;;;;;;;0.80;0.80;;;19.20;55.20;;;;;;5012677;28;20214;-67
2023/01/18 11:29:43;;;;;;;1.00;1.00;;;19.20;55.20;;;;;;4993739;28;20202;-67
2023/01/18 11:32:25;;;;;;;1.38;1.27;;;19.20;55.30;;;;;;4994993;28;20219;-68
2023/01/18 11:34:56;;;;;;;1.20;1.10;;;19.20;55.20;;;;;;4978960;28;20184;-67
2023/01/18 11:37:42;;;;;;;0.95;0.90;;;19.20;55.20;;;;;;5012246;28;20242;-67
2023/01/18 11:40:33;;;;;;;1.20;1.10;;;19.20;55.30;;;;;;4972810;28;20210;-68
2023/01/18 11:43:16;;;;;;;1.48;1.25;;;19.20;55.30;;;;;;4995042;28;20719;-68
2023/01/18 11:46:06;;;;;;;1.60;0.90;;;19.20;55.30;;;;;;4994809;28;20198;-68
2023/01/18 11:48:52;;;;;;;1.30;1.10;;;19.20;55.40;;;;;;4994648;28;20196;-68
2023/01/18 11:51:38;;;;;;;1.23;1.15;;;19.20;54.80;;;;;;4994582;28;20223;-68
2023/01/18 11:54:27;;;;;;;0.98;0.95;;;19.20;55.40;;;;;;4994929;28;20623;-67
2023/01/18 11:57:01;;;;;;;1.10;1.10;;;19.20;55.40;;;;;;4978622;28;20195;-68
2023/01/18 11:59:35;;;;;;;1.13;1.02;;;19.20;55.40;;;;;;4994450;28;20187;-68
2023/01/18 12:02:54;;;;;;;1.17;1.08;;;19.20;55.30;;;;;;4994815;28;20218;-67
2023/01/18 12:05:46;;;;;;;0.90;0.90;;;19.20;55.30;;;;;;4995749;28;20218;-67
2023/01/18 12:08:45;;;;;;;1.30;1.20;;;19.20;55.30;;;;;;4989114;28;20188;-68
2023/01/18 12:12:14;;;;;;;1.05;1.00;;;19.20;55.40;;;;;;5010748;28;20250;-68
2023/01/18 12:15:37;;;;;;;0.88;0.88;;;19.20;55.20;;;;;;4994483;28;20203;-68
2023/01/18 12:18:34;;;;;;;1.35;1.25;;;19.20;55.20;;;;;;5012154;28;20192;-68
2023/01/18 12:21:18;;;;;;;1.20;1.00;;;19.20;55.40;;;;;;4978119;28;20287;-67
2023/01/18 12:24:30;;;;;;;1.10;1.00;;;19.20;55.90;;;;;;4994167;28;20195;-68
2023/01/18 12:27:19;;;;;;;1.30;1.20;;;19.20;55.30;;;;;;4939345;28;20201;-67
2023/01/18 12:30:03;;;;;;;1.23;1.20;;;19.20;55.30;;;;;;4954130;28;20220;-68
2023/01/18 12:33:15;;;;;;;1.17;1.17;;;19.20;55.40;;;;;;5003752;28;20227;-68
2023/01/18 12:35:52;;;;;;;0.90;0.90;;;19.20;55.20;;;;;;4994316;28;20188;-68
2023/01/18 12:38:27;;;;;;;1.38;1.27;;;19.20;55.30;;;;;;4994023;28;20196;-67
2023/01/18 12:41:44;;;;;;;1.33;1.23;;;19.20;55.30;;;;;;5012550;28;20192;-68
2023/01/18 12:44:28;;;;;;;1.10;1.00;;;19.20;55.40;;;;;;4984846;28;20191;-68
2023/01/18 12:47:27;;;;;;;1.02;1.02;;;19.20;55.40;;;;;;4981868;28;20201;-68
2023/01/18 12:49:58;;;;;;;1.30;1.20;;;19.20;55.30;;;;;;4981558;28;20589;-67
2023/01/18 12:52:26;;;;;;;1.10;1.00;;;19.20;55.30;;;;;;4997971;28;20775;-68
2023/01/18 12:54:58;;;;;;;1.15;1.05;;;19.20;55.30;;;;;;4997914;28;20184;-67
2023/01/18 12:57:25;;;;;;;1.27;1.17;;;19.20;55.30;;;;;;4998017;28;20212;-68
2023/01/18 13:00:06;;;;;;;1.17;1.13;;;19.20;55.30;;;;;;4997611;28;20204;-68
2023/01/18 13:02:44;;;;;;;1.38;1.27;;;19.20;55.40;;;;;;5015374;28;20660;-67
2023/01/18 13:05:42;;;;;;;1.20;1.10;;;19.20;55.40;;;;;;5015594;28;20231;-68
2023/01/18 13:09:02;;;;;;;1.00;1.00;;;19.20;55.20;;;;;;4997710;28;20266;-68
2023/01/18 13:11:36;;;;;;;1.00;1.00;;;19.20;55.30;;;;;;5013032;28;20231;-68
2023/01/18 13:14:20;;;;;;;1.30;1.20;;;19.20;55.40;;;;;;4997784;28;20654;-68
2023/01/18 13:17:07;;;;;;;1.20;1.20;;;19.20;55.30;;;;;;4997719;28;20215;-68
2023/01/18 13:19:53;;;;;;;1.25;0.93;;;19.20;55.30;;;;;;5015404;28;20669;-68
2023/01/18 13:22:59;;;;;;;1.10;1.10;;;19.20;55.20;;;;;;4997559;28;20239;-68
2023/01/18 13:25:36;;;;;;;1.30;1.20;;;19.20;55.30;;;;;;4981543;28;20249;-67
2023/01/18 13:28:14;;;;;;;1.48;1.33;;;19.20;55.30;;;;;;4997476;28;20188;-68
2023/01/18 13:31:05;;;;;;;1.30;1.20;;;19.20;55.40;;;;;;4997310;28;20218;-68
2023/01/18 13:33:37;;;;;;;0.90;0.90;;;19.20;55.20;;;;;;4985239;28;20192;-65
2023/01/18 13:36:08;;;;;;;0.95;0.95;;;19.20;55.40;;;;;;5013825;28;20219;-68
2023/01/18 13:38:46;;;;;;;1.25;1.15;;;19.20;55.30;;;;;;4997091;28;20214;-68
2023/01/18 13:41:12;;;;;;;1.70;1.20;;;19.20;55.40;;;;;;5014537;28;20565;-68
2023/01/18 13:43:44;;;;;;;1.08;0.98;;;19.20;55.40;;;;;;4997133;28;20250;-68
2023/01/18 13:46:13;;;;;;;1.30;1.20;;;19.20;55.40;;;;;;4997273;28;20287;-68
2023/01/18 13:49:19;;;;;;;1.20;1.10;;;19.20;55.40;;;;;;4997134;28;20192;-67
2023/01/18 13:51:46;;;;;;;1.35;1.20;;;19.20;55.30;;;;;;4995521;28;20609;-68